sensor_id;sensor_type;location;lat;lon;timestamp;P1;durP1;ratioP1;P2;durP2;ratioP2
14396;SDS011;50653;47.810;13.022;2022-12-13T00:01:35;8.70;;;7.80;;
14396;SDS011;50653;47.810;13.022;2022-12-13T00:04:01;10.53;;;7.93;;
14396;SDS011;50653;47.810;13.022;2022-12-13T00:06:29;8.33;;;7.33;;
14396;SDS011;50653;47.810;13.022;2022-12-13T00:08:55;9.33;;;8.50;;
14396;SDS011;50653;47.810;13.022;2022-12-13T00:11:21;6.73;;;6.13;;
14396;SDS011;50653;47.810;13.022;2022-12-13T00:13:47;10.03;;;7.47;;
14396;SDS011;50653;47.810;13.022;2022-12-13T00:16:14;7.03;;;6.50;;
14396;SDS011;50653;47.810;13.022;2022-12-13T00:19:02;8.37;;;7.53;;
14396;SDS011;50653;47.810;13.022;2022-12-13T00:21:30;10.97;;;9.40;;
14396;SDS011;50653;47.810;13.022;2022-12-13T00:23:57;9.20;;;7.90;;
14396;SDS011;50653;47.810;13.022;2022-12-13T00:26:25;8.80;;;7.90;;
14396;SDS011;50653;47.810;13.022;2022-12-13T00:28:53;7.87;;;7.17;;
14396;SDS011;50653;47.810;13.022;2022-12-13T00:31:19;8.03;;;7.27;;
14396;SDS011;50653;47.810;13.022;2022-12-13T00:33:46;7.00;;;6.37;;
14396;SDS011;50653;47.810;13.022;2022-12-13T00:36:13;7.63;;;6.93;;
14396;SDS011;50653;47.810;13.022;2022-12-13T00:38:39;8.47;;;7.00;;
14396;SDS011;50653;47.810;13.022;2022-12-13T00:41:15;8.23;;;7.03;;
14396;SDS011;50653;47.810;13.022;2022-12-13T00:43:43;8.07;;;7.07;;
14396;SDS011;50653;47.810;13.022;2022-12-13T00:46:13;8.17;;;7.47;;
14396;SDS011;50653;47.810;13.022;2022-12-13T00:48:40;7.53;;;6.83;;
14396;SDS011;50653;47.810;13.022;2022-12-13T00:51:07;7.60;;;6.80;;
14396;SDS011;50653;47.810;13.022;2022-12-13T00:53:33;8.20;;;7.37;;
14396;SDS011;50653;47.810;13.022;2022-12-13T00:56:00;11.17;;;8.67;;
14396;SDS011;50653;47.810;13.022;2022-12-13T00:58:25;10.10;;;7.70;;
14396;SDS011;50653;47.810;13.022;2022-12-13T01:00:51;8.13;;;7.30;;
14396;SDS011;50653;47.810;13.022;2022-12-13T01:03:18;7.13;;;6.30;;
14396;SDS011;50653;47.810;13.022;2022-12-13T01:05:47;7.77;;;7.03;;
14396;SDS011;50653;47.810;13.022;2022-12-13T01:08:13;7.70;;;6.90;;
14396;SDS011;50653;47.810;13.022;2022-12-13T01:10:43;6.23;;;5.73;;
14396;SDS011;50653;47.810;13.022;2022-12-13T01:13:10;9.80;;;6.60;;
14396;SDS011;50653;47.810;13.022;2022-12-13T01:15:43;7.40;;;6.80;;
14396;SDS011;50653;47.810;13.022;2022-12-13T01:18:10;9.43;;;7.47;;
14396;SDS011;50653;47.810;13.022;2022-12-13T01:20:38;6.57;;;5.83;;
14396;SDS011;50653;47.810;13.022;2022-12-13T01:23:04;7.27;;;6.57;;
14396;SDS011;50653;47.810;13.022;2022-12-13T01:25:31;7.07;;;6.37;;
14396;SDS011;50653;47.810;13.022;2022-12-13T01:27:57;6.20;;;5.70;;
14396;SDS011;50653;47.810;13.022;2022-12-13T01:30:24;7.20;;;6.60;;
14396;SDS011;50653;47.810;13.022;2022-12-13T01:32:50;7.73;;;6.93;;
14396;SDS011;50653;47.810;13.022;2022-12-13T01:35:15;9.43;;;7.07;;
14396;SDS011;50653;47.810;13.022;2022-12-13T01:37:41;11.27;;;7.20;;
14396;SDS011;50653;47.810;13.022;2022-12-13T01:40:07;8.30;;;7.47;;
14396;SDS011;50653;47.810;13.022;2022-12-13T01:42:37;8.00;;;7.30;;
14396;SDS011;50653;47.810;13.022;2022-12-13T01:45:04;9.70;;;8.37;;
14396;SDS011;50653;47.810;13.022;2022-12-13T01:47:55;11.27;;;8.43;;
14396;SDS011;50653;47.810;13.022;2022-12-13T01:50:28;11.40;;;8.80;;
14396;SDS011;50653;47.810;13.022;2022-12-13T01:53:03;17.80;;;11.10;;
14396;SDS011;50653;47.810;13.022;2022-12-13T01:55:32;17.03;;;10.83;;
14396;SDS011;50653;47.810;13.022;2022-12-13T01:58:00;12.47;;;11.00;;
14396;SDS011;50653;47.810;13.022;2022-12-13T02:00:29;16.00;;;12.37;;
14396;SDS011;50653;47.810;13.022;2022-12-13T02:02:56;14.73;;;10.73;;
14396;SDS011;50653;47.810;13.022;2022-12-13T02:05:30;14.90;;;10.10;;
14396;SDS011;50653;47.810;13.022;2022-12-13T02:08:01;12.40;;;9.93;;
14396;SDS011;50653;47.810;13.022;2022-12-13T02:10:28;12.53;;;9.17;;
14396;SDS011;50653;47.810;13.022;2022-12-13T02:12:55;13.27;;;9.13;;
14396;SDS011;50653;47.810;13.022;2022-12-13T02:15:23;8.83;;;7.57;;
14396;SDS011;50653;47.810;13.022;2022-12-13T02:34:46;11.43;;;6.60;;
14396;SDS011;50653;47.810;13.022;2022-12-13T02:40:19;7.83;;;7.07;;
14396;SDS011;50653;47.810;13.022;2022-12-13T02:43:09;6.93;;;6.23;;
14396;SDS011;50653;47.810;13.022;2022-12-13T02:45:50;7.93;;;7.03;;
14396;SDS011;50653;47.810;13.022;2022-12-13T02:48:26;7.23;;;6.37;;
14396;SDS011;50653;47.810;13.022;2022-12-13T02:50:55;6.37;;;5.60;;
14396;SDS011;50653;47.810;13.022;2022-12-13T02:53:23;7.37;;;5.07;;
14396;SDS011;50653;47.810;13.022;2022-12-13T02:55:50;6.47;;;5.87;;
14396;SDS011;50653;47.810;13.022;2022-12-13T02:58:18;7.70;;;6.10;;
14396;SDS011;50653;47.810;13.022;2022-12-13T03:03:47;7.97;;;6.53;;
14396;SDS011;50653;47.810;13.022;2022-12-13T03:06:41;8.97;;;7.70;;
14396;SDS011;50653;47.810;13.022;2022-12-13T03:09:25;10.70;;;6.20;;
14396;SDS011;50653;47.810;13.022;2022-12-13T03:12:21;5.40;;;5.00;;
14396;SDS011;50653;47.810;13.022;2022-12-13T03:15:15;6.87;;;6.03;;
14396;SDS011;50653;47.810;13.022;2022-12-13T03:18:02;6.77;;;6.07;;
14396;SDS011;50653;47.810;13.022;2022-12-13T03:20:50;9.30;;;6.07;;
14396;SDS011;50653;47.810;13.022;2022-12-13T03:23:18;7.10;;;5.63;;
14396;SDS011;50653;47.810;13.022;2022-12-13T03:25:50;7.50;;;6.90;;
14396;SDS011;50653;47.810;13.022;2022-12-13T03:28:18;6.17;;;5.67;;
14396;SDS011;50653;47.810;13.022;2022-12-13T03:30:43;6.70;;;6.07;;
14396;SDS011;50653;47.810;13.022;2022-12-13T03:33:09;6.13;;;5.60;;
14396;SDS011;50653;47.810;13.022;2022-12-13T03:35:35;5.80;;;5.30;;
14396;SDS011;50653;47.810;13.022;2022-12-13T03:38:01;5.60;;;5.20;;
14396;SDS011;50653;47.810;13.022;2022-12-13T03:40:27;10.50;;;5.60;;
14396;SDS011;50653;47.810;13.022;2022-12-13T03:42:54;5.57;;;4.20;;
14396;SDS011;50653;47.810;13.022;2022-12-13T03:45:20;5.97;;;5.57;;
14396;SDS011;50653;47.810;13.022;2022-12-13T03:47:46;4.53;;;4.17;;
14396;SDS011;50653;47.810;13.022;2022-12-13T03:50:11;6.40;;;5.90;;
14396;SDS011;50653;47.810;13.022;2022-12-13T03:52:37;6.20;;;5.70;;
14396;SDS011;50653;47.810;13.022;2022-12-13T03:55:03;6.30;;;5.70;;
14396;SDS011;50653;47.810;13.022;2022-12-13T03:57:29;8.83;;;4.93;;
14396;SDS011;50653;47.810;13.022;2022-12-13T03:59:55;6.33;;;5.80;;
14396;SDS011;50653;47.810;13.022;2022-12-13T04:02:21;6.90;;;6.20;;
14396;SDS011;50653;47.810;13.022;2022-12-13T04:04:46;6.03;;;5.33;;
14396;SDS011;50653;47.810;13.022;2022-12-13T04:07:12;7.13;;;5.37;;
14396;SDS011;50653;47.810;13.022;2022-12-13T04:09:38;5.10;;;4.70;;
14396;SDS011;50653;47.810;13.022;2022-12-13T04:12:03;7.50;;;5.80;;
14396;SDS011;50653;47.810;13.022;2022-12-13T04:14:48;6.60;;;6.10;;
14396;SDS011;50653;47.810;13.022;2022-12-13T04:17:13;8.97;;;6.37;;
14396;SDS011;50653;47.810;13.022;2022-12-13T04:19:39;6.53;;;6.00;;
14396;SDS011;50653;47.810;13.022;2022-12-13T04:22:04;6.90;;;6.43;;
14396;SDS011;50653;47.810;13.022;2022-12-13T04:24:30;7.10;;;6.50;;
14396;SDS011;50653;47.810;13.022;2022-12-13T04:26:56;7.43;;;6.73;;
14396;SDS011;50653;47.810;13.022;2022-12-13T04:29:21;11.60;;;7.43;;
14396;SDS011;50653;47.810;13.022;2022-12-13T04:31:47;6.30;;;5.77;;
14396;SDS011;50653;47.810;13.022;2022-12-13T04:34:12;7.80;;;5.70;;
14396;SDS011;50653;47.810;13.022;2022-12-13T04:36:38;8.13;;;6.50;;
14396;SDS011;50653;47.810;13.022;2022-12-13T04:39:04;6.60;;;5.70;;
14396;SDS011;50653;47.810;13.022;2022-12-13T04:41:34;9.87;;;6.00;;
14396;SDS011;50653;47.810;13.022;2022-12-13T04:44:03;6.00;;;5.13;;
14396;SDS011;50653;47.810;13.022;2022-12-13T04:46:31;5.47;;;5.00;;
14396;SDS011;50653;47.810;13.022;2022-12-13T04:48:57;4.60;;;4.20;;
14396;SDS011;50653;47.810;13.022;2022-12-13T04:51:22;5.60;;;5.10;;
14396;SDS011;50653;47.810;13.022;2022-12-13T04:53:48;4.10;;;3.80;;
14396;SDS011;50653;47.810;13.022;2022-12-13T04:56:14;4.30;;;3.90;;
14396;SDS011;50653;47.810;13.022;2022-12-13T04:58:40;4.07;;;3.77;;
14396;SDS011;50653;47.810;13.022;2022-12-13T05:01:06;5.07;;;4.57;;
14396;SDS011;50653;47.810;13.022;2022-12-13T05:03:32;5.57;;;4.80;;
14396;SDS011;50653;47.810;13.022;2022-12-13T05:05:58;4.23;;;3.43;;
14396;SDS011;50653;47.810;13.022;2022-12-13T05:08:28;5.70;;;5.20;;
14396;SDS011;50653;47.810;13.022;2022-12-13T05:10:53;6.60;;;5.87;;
14396;SDS011;50653;47.810;13.022;2022-12-13T05:13:19;8.00;;;7.03;;
14396;SDS011;50653;47.810;13.022;2022-12-13T05:15:44;6.67;;;5.97;;
14396;SDS011;50653;47.810;13.022;2022-12-13T05:18:10;11.30;;;7.77;;
14396;SDS011;50653;47.810;13.022;2022-12-13T05:20:36;12.40;;;9.23;;
14396;SDS011;50653;47.810;13.022;2022-12-13T05:23:03;7.60;;;6.90;;
14396;SDS011;50653;47.810;13.022;2022-12-13T05:25:28;10.07;;;6.63;;
14396;SDS011;50653;47.810;13.022;2022-12-13T05:27:54;8.77;;;7.77;;
14396;SDS011;50653;47.810;13.022;2022-12-13T05:30:21;6.87;;;6.20;;
14396;SDS011;50653;47.810;13.022;2022-12-13T05:32:47;13.00;;;7.23;;
14396;SDS011;50653;47.810;13.022;2022-12-13T05:35:13;7.60;;;6.90;;
14396;SDS011;50653;47.810;13.022;2022-12-13T05:37:39;9.50;;;7.90;;
14396;SDS011;50653;47.810;13.022;2022-12-13T05:40:06;10.80;;;9.27;;
14396;SDS011;50653;47.810;13.022;2022-12-13T05:42:32;11.00;;;8.67;;
14396;SDS011;50653;47.810;13.022;2022-12-13T05:44:57;12.23;;;9.20;;
14396;SDS011;50653;47.810;13.022;2022-12-13T05:47:23;12.73;;;7.70;;
14396;SDS011;50653;47.810;13.022;2022-12-13T05:49:49;17.50;;;9.73;;
14396;SDS011;50653;47.810;13.022;2022-12-13T05:52:19;27.50;;;16.67;;
14396;SDS011;50653;47.810;13.022;2022-12-13T05:54:46;8.97;;;8.07;;
14396;SDS011;50653;47.810;13.022;2022-12-13T05:57:12;11.60;;;9.50;;
14396;SDS011;50653;47.810;13.022;2022-12-13T05:59:38;11.03;;;8.67;;
14396;SDS011;50653;47.810;13.022;2022-12-13T06:02:03;15.00;;;10.40;;
14396;SDS011;50653;47.810;13.022;2022-12-13T06:04:29;11.43;;;8.90;;
14396;SDS011;50653;47.810;13.022;2022-12-13T06:06:55;14.33;;;10.10;;
14396;SDS011;50653;47.810;13.022;2022-12-13T06:09:21;9.83;;;8.77;;
14396;SDS011;50653;47.810;13.022;2022-12-13T06:11:47;8.10;;;7.40;;
14396;SDS011;50653;47.810;13.022;2022-12-13T06:14:13;8.83;;;7.67;;
14396;SDS011;50653;47.810;13.022;2022-12-13T06:16:39;9.30;;;8.37;;
14396;SDS011;50653;47.810;13.022;2022-12-13T06:19:04;11.17;;;9.60;;
14396;SDS011;50653;47.810;13.022;2022-12-13T06:21:31;14.70;;;10.20;;
14396;SDS011;50653;47.810;13.022;2022-12-13T06:23:57;13.27;;;11.63;;
14396;SDS011;50653;47.810;13.022;2022-12-13T06:26:23;19.93;;;12.80;;
14396;SDS011;50653;47.810;13.022;2022-12-13T06:28:48;12.13;;;10.20;;
14396;SDS011;50653;47.810;13.022;2022-12-13T06:31:14;12.33;;;11.10;;
14396;SDS011;50653;47.810;13.022;2022-12-13T06:33:39;14.10;;;9.53;;
14396;SDS011;50653;47.810;13.022;2022-12-13T06:36:05;12.30;;;11.03;;
14396;SDS011;50653;47.810;13.022;2022-12-13T06:38:31;14.73;;;13.20;;
14396;SDS011;50653;47.810;13.022;2022-12-13T06:41:10;22.83;;;14.30;;
14396;SDS011;50653;47.810;13.022;2022-12-13T06:43:37;15.37;;;13.77;;
14396;SDS011;50653;47.810;13.022;2022-12-13T06:46:05;15.33;;;12.73;;
14396;SDS011;50653;47.810;13.022;2022-12-13T06:48:31;25.20;;;17.30;;
14396;SDS011;50653;47.810;13.022;2022-12-13T06:51:03;28.07;;;18.20;;
14396;SDS011;50653;47.810;13.022;2022-12-13T06:53:29;27.23;;;17.80;;
14396;SDS011;50653;47.810;13.022;2022-12-13T06:55:56;26.10;;;17.13;;
14396;SDS011;50653;47.810;13.022;2022-12-13T06:58:26;22.40;;;16.97;;
14396;SDS011;50653;47.810;13.022;2022-12-13T07:00:59;20.97;;;15.40;;
14396;SDS011;50653;47.810;13.022;2022-12-13T07:03:26;20.70;;;14.93;;
14396;SDS011;50653;47.810;13.022;2022-12-13T07:05:52;22.13;;;14.43;;
14396;SDS011;50653;47.810;13.022;2022-12-13T07:08:17;22.87;;;16.67;;
14396;SDS011;50653;47.810;13.022;2022-12-13T07:10:43;25.20;;;15.87;;
14396;SDS011;50653;47.810;13.022;2022-12-13T07:13:09;23.50;;;17.07;;
14396;SDS011;50653;47.810;13.022;2022-12-13T07:15:35;23.63;;;15.40;;
14396;SDS011;50653;47.810;13.022;2022-12-13T07:18:00;19.87;;;15.07;;
14396;SDS011;50653;47.810;13.022;2022-12-13T07:20:26;23.63;;;15.30;;
14396;SDS011;50653;47.810;13.022;2022-12-13T07:22:51;32.13;;;16.20;;
14396;SDS011;50653;47.810;13.022;2022-12-13T07:25:20;21.57;;;15.30;;
14396;SDS011;50653;47.810;13.022;2022-12-13T07:27:46;25.37;;;15.40;;
14396;SDS011;50653;47.810;13.022;2022-12-13T07:30:12;15.97;;;14.30;;
14396;SDS011;50653;47.810;13.022;2022-12-13T07:32:39;26.43;;;15.80;;
14396;SDS011;50653;47.810;13.022;2022-12-13T07:35:05;28.47;;;16.60;;
14396;SDS011;50653;47.810;13.022;2022-12-13T07:37:30;35.97;;;19.70;;
14396;SDS011;50653;47.810;13.022;2022-12-13T07:39:57;48.60;;;24.80;;
14396;SDS011;50653;47.810;13.022;2022-12-13T07:42:23;34.87;;;21.67;;
14396;SDS011;50653;47.810;13.022;2022-12-13T07:44:49;39.47;;;25.30;;
14396;SDS011;50653;47.810;13.022;2022-12-13T07:47:14;32.97;;;22.90;;
14396;SDS011;50653;47.810;13.022;2022-12-13T07:49:40;33.10;;;20.90;;
14396;SDS011;50653;47.810;13.022;2022-12-13T07:52:10;28.67;;;17.00;;
14396;SDS011;50653;47.810;13.022;2022-12-13T07:54:36;34.20;;;21.07;;
14396;SDS011;50653;47.810;13.022;2022-12-13T07:57:02;30.67;;;19.77;;
14396;SDS011;50653;47.810;13.022;2022-12-13T07:59:27;34.03;;;23.13;;
14396;SDS011;50653;47.810;13.022;2022-12-13T08:01:53;32.77;;;20.90;;
14396;SDS011;50653;47.810;13.022;2022-12-13T08:04:19;37.47;;;22.80;;
14396;SDS011;50653;47.810;13.022;2022-12-13T08:06:44;42.87;;;29.40;;
14396;SDS011;50653;47.810;13.022;2022-12-13T08:09:10;47.53;;;32.17;;
14396;SDS011;50653;47.810;13.022;2022-12-13T08:11:35;40.93;;;27.50;;
14396;SDS011;50653;47.810;13.022;2022-12-13T08:14:01;36.70;;;22.73;;
14396;SDS011;50653;47.810;13.022;2022-12-13T08:16:27;37.47;;;23.53;;
14396;SDS011;50653;47.810;13.022;2022-12-13T08:18:53;34.97;;;23.87;;
14396;SDS011;50653;47.810;13.022;2022-12-13T08:21:19;38.77;;;22.50;;
14396;SDS011;50653;47.810;13.022;2022-12-13T08:23:44;41.83;;;23.83;;
14396;SDS011;50653;47.810;13.022;2022-12-13T08:26:10;35.33;;;23.23;;
14396;SDS011;50653;47.810;13.022;2022-12-13T08:28:35;41.57;;;25.40;;
14396;SDS011;50653;47.810;13.022;2022-12-13T08:31:06;33.47;;;22.30;;
14396;SDS011;50653;47.810;13.022;2022-12-13T08:33:35;40.50;;;23.47;;
14396;SDS011;50653;47.810;13.022;2022-12-13T08:36:11;30.73;;;23.00;;
14396;SDS011;50653;47.810;13.022;2022-12-13T08:38:42;36.27;;;22.70;;
14396;SDS011;50653;47.810;13.022;2022-12-13T08:41:08;26.43;;;20.70;;
14396;SDS011;50653;47.810;13.022;2022-12-13T08:43:34;31.60;;;21.47;;
14396;SDS011;50653;47.810;13.022;2022-12-13T08:46:00;27.90;;;19.07;;
14396;SDS011;50653;47.810;13.022;2022-12-13T08:48:26;45.00;;;22.33;;
14396;SDS011;50653;47.810;13.022;2022-12-13T08:50:52;31.87;;;20.30;;
14396;SDS011;50653;47.810;13.022;2022-12-13T08:53:18;28.33;;;19.83;;
14396;SDS011;50653;47.810;13.022;2022-12-13T08:55:44;29.50;;;19.53;;
14396;SDS011;50653;47.810;13.022;2022-12-13T08:58:09;27.70;;;19.80;;
14396;SDS011;50653;47.810;13.022;2022-12-13T09:00:35;28.13;;;20.10;;
14396;SDS011;50653;47.810;13.022;2022-12-13T09:03:02;25.57;;;18.00;;
14396;SDS011;50653;47.810;13.022;2022-12-13T09:05:29;27.13;;;15.70;;
14396;SDS011;50653;47.810;13.022;2022-12-13T09:07:55;21.03;;;14.10;;
14396;SDS011;50653;47.810;13.022;2022-12-13T09:10:22;18.37;;;13.97;;
14396;SDS011;50653;47.810;13.022;2022-12-13T09:12:48;15.30;;;12.33;;
14396;SDS011;50653;47.810;13.022;2022-12-13T09:15:15;17.10;;;13.40;;
14396;SDS011;50653;47.810;13.022;2022-12-13T09:17:40;19.00;;;11.27;;
14396;SDS011;50653;47.810;13.022;2022-12-13T09:20:06;19.63;;;13.43;;
14396;SDS011;50653;47.810;13.022;2022-12-13T09:22:35;18.70;;;12.80;;
14396;SDS011;50653;47.810;13.022;2022-12-13T09:25:01;13.90;;;12.30;;
14396;SDS011;50653;47.810;13.022;2022-12-13T09:27:28;11.17;;;8.77;;
14396;SDS011;50653;47.810;13.022;2022-12-13T09:29:54;19.17;;;11.40;;
14396;SDS011;50653;47.810;13.022;2022-12-13T09:32:20;18.20;;;9.90;;
14396;SDS011;50653;47.810;13.022;2022-12-13T09:34:46;10.43;;;8.67;;
14396;SDS011;50653;47.810;13.022;2022-12-13T09:37:12;7.97;;;7.17;;
14396;SDS011;50653;47.810;13.022;2022-12-13T09:39:38;10.63;;;7.93;;
14396;SDS011;50653;47.810;13.022;2022-12-13T09:42:03;10.23;;;8.67;;
14396;SDS011;50653;47.810;13.022;2022-12-13T09:44:35;12.53;;;8.90;;
14396;SDS011;50653;47.810;13.022;2022-12-13T09:47:08;14.07;;;11.67;;
14396;SDS011;50653;47.810;13.022;2022-12-13T09:49:43;13.47;;;9.70;;
14396;SDS011;50653;47.810;13.022;2022-12-13T09:52:11;15.17;;;9.83;;
14396;SDS011;50653;47.810;13.022;2022-12-13T09:54:43;12.17;;;8.57;;
14396;SDS011;50653;47.810;13.022;2022-12-13T09:57:14;9.00;;;8.10;;
14396;SDS011;50653;47.810;13.022;2022-12-13T09:59:51;8.83;;;7.10;;
14396;SDS011;50653;47.810;13.022;2022-12-13T10:02:20;7.23;;;6.63;;
14396;SDS011;50653;47.810;13.022;2022-12-13T10:04:53;7.43;;;6.70;;
14396;SDS011;50653;47.810;13.022;2022-12-13T10:07:22;6.40;;;5.90;;
14396;SDS011;50653;47.810;13.022;2022-12-13T10:09:55;7.67;;;7.07;;
14396;SDS011;50653;47.810;13.022;2022-12-13T10:12:25;9.80;;;8.80;;
14396;SDS011;50653;47.810;13.022;2022-12-13T10:14:57;11.13;;;8.57;;
14396;SDS011;50653;47.810;13.022;2022-12-13T10:17:26;13.97;;;9.80;;
14396;SDS011;50653;47.810;13.022;2022-12-13T10:19:56;10.67;;;9.67;;
14396;SDS011;50653;47.810;13.022;2022-12-13T10:22:22;10.33;;;9.27;;
14396;SDS011;50653;47.810;13.022;2022-12-13T10:24:53;10.73;;;8.10;;
14396;SDS011;50653;47.810;13.022;2022-12-13T10:27:29;12.37;;;6.97;;
14396;SDS011;50653;47.810;13.022;2022-12-13T10:32:30;12.47;;;7.17;;
14396;SDS011;50653;47.810;13.022;2022-12-13T10:35:10;7.20;;;6.60;;
14396;SDS011;50653;47.810;13.022;2022-12-13T10:37:48;9.27;;;8.40;;
14396;SDS011;50653;47.810;13.022;2022-12-13T10:43:12;12.63;;;11.20;;
14396;SDS011;50653;47.810;13.022;2022-12-13T10:48:23;15.60;;;11.87;;
14396;SDS011;50653;47.810;13.022;2022-12-13T10:50:59;12.50;;;11.23;;
14396;SDS011;50653;47.810;13.022;2022-12-13T10:53:34;13.40;;;11.30;;
14396;SDS011;50653;47.810;13.022;2022-12-13T10:56:03;11.70;;;10.60;;
14396;SDS011;50653;47.810;13.022;2022-12-13T10:58:34;14.63;;;11.23;;
14396;SDS011;50653;47.810;13.022;2022-12-13T11:03:43;19.50;;;11.87;;
14396;SDS011;50653;47.810;13.022;2022-12-13T11:06:24;23.00;;;12.30;;
14396;SDS011;50653;47.810;13.022;2022-12-13T11:09:12;19.47;;;10.87;;
14396;SDS011;50653;47.810;13.022;2022-12-13T11:11:48;12.23;;;10.17;;
14396;SDS011;50653;47.810;13.022;2022-12-13T11:14:16;13.77;;;11.30;;
14396;SDS011;50653;47.810;13.022;2022-12-13T11:16:44;18.07;;;13.60;;
14396;SDS011;50653;47.810;13.022;2022-12-13T11:19:23;19.43;;;13.20;;
14396;SDS011;50653;47.810;13.022;2022-12-13T11:21:53;27.47;;;13.90;;
14396;SDS011;50653;47.810;13.022;2022-12-13T11:24:20;16.77;;;11.43;;
14396;SDS011;50653;47.810;13.022;2022-12-13T11:26:55;16.63;;;11.73;;
14396;SDS011;50653;47.810;13.022;2022-12-13T11:31:55;20.67;;;12.70;;
14396;SDS011;50653;47.810;13.022;2022-12-13T11:36:53;13.83;;;12.40;;
14396;SDS011;50653;47.810;13.022;2022-12-13T11:42:40;13.60;;;12.17;;
14396;SDS011;50653;47.810;13.022;2022-12-13T11:45:23;17.23;;;12.63;;
14396;SDS011;50653;47.810;13.022;2022-12-13T11:50:37;13.23;;;11.60;;
14396;SDS011;50653;47.810;13.022;2022-12-13T11:55:58;17.17;;;10.90;;
14396;SDS011;50653;47.810;13.022;2022-12-13T11:58:41;14.93;;;13.00;;
14396;SDS011;50653;47.810;13.022;2022-12-13T12:01:17;18.60;;;13.30;;
14396;SDS011;50653;47.810;13.022;2022-12-13T12:03:48;19.13;;;13.70;;
14396;SDS011;50653;47.810;13.022;2022-12-13T12:06:22;14.77;;;12.27;;
14396;SDS011;50653;47.810;13.022;2022-12-13T12:08:57;28.67;;;11.23;;
14396;SDS011;50653;47.810;13.022;2022-12-13T12:11:31;14.20;;;12.70;;
14396;SDS011;50653;47.810;13.022;2022-12-13T12:14:12;15.70;;;11.20;;
14396;SDS011;50653;47.810;13.022;2022-12-13T12:16:54;15.20;;;12.47;;
14396;SDS011;50653;47.810;13.022;2022-12-13T12:19:45;17.67;;;12.20;;
14396;SDS011;50653;47.810;13.022;2022-12-13T12:22:20;22.03;;;12.17;;
14396;SDS011;50653;47.810;13.022;2022-12-13T12:25:12;12.93;;;11.60;;
14396;SDS011;50653;47.810;13.022;2022-12-13T12:39:17;13.40;;;11.73;;
14396;SDS011;50653;47.810;13.022;2022-12-13T12:41:54;14.50;;;11.03;;
14396;SDS011;50653;47.810;13.022;2022-12-13T12:44:59;20.73;;;11.80;;
14396;SDS011;50653;47.810;13.022;2022-12-13T12:50:32;18.00;;;11.77;;
14396;SDS011;50653;47.810;13.022;2022-12-13T12:58:33;15.17;;;11.13;;
14396;SDS011;50653;47.810;13.022;2022-12-13T13:03:52;12.93;;;11.60;;
14396;SDS011;50653;47.810;13.022;2022-12-13T13:06:22;17.70;;;12.80;;
14396;SDS011;50653;47.810;13.022;2022-12-13T13:11:23;23.80;;;13.57;;
14396;SDS011;50653;47.810;13.022;2022-12-13T13:16:38;15.47;;;11.97;;
14396;SDS011;50653;47.810;13.022;2022-12-13T13:24:12;22.50;;;13.43;;
14396;SDS011;50653;47.810;13.022;2022-12-13T13:26:42;16.77;;;12.10;;
14396;SDS011;50653;47.810;13.022;2022-12-13T13:31:59;15.53;;;12.00;;
14396;SDS011;50653;47.810;13.022;2022-12-13T13:34:39;16.70;;;11.90;;
14396;SDS011;50653;47.810;13.022;2022-12-13T13:45:51;15.67;;;13.03;;
14396;SDS011;50653;47.810;13.022;2022-12-13T13:56:25;16.33;;;13.10;;
14396;SDS011;50653;47.810;13.022;2022-12-13T14:02:10;15.37;;;12.20;;
14396;SDS011;50653;47.810;13.022;2022-12-13T14:11:15;19.43;;;12.70;;
14396;SDS011;50653;47.810;13.022;2022-12-13T14:19:53;15.03;;;12.90;;
14396;SDS011;50653;47.810;13.022;2022-12-13T14:22:45;14.87;;;12.40;;
14396;SDS011;50653;47.810;13.022;2022-12-13T14:33:54;15.50;;;11.27;;
14396;SDS011;50653;47.810;13.022;2022-12-13T14:36:26;18.93;;;12.83;;
14396;SDS011;50653;47.810;13.022;2022-12-13T14:38:59;18.70;;;11.57;;
14396;SDS011;50653;47.810;13.022;2022-12-13T14:41:46;14.57;;;11.43;;
14396;SDS011;50653;47.810;13.022;2022-12-13T14:44:15;15.00;;;10.63;;
14396;SDS011;50653;47.810;13.022;2022-12-13T14:47:10;15.10;;;12.43;;
14396;SDS011;50653;47.810;13.022;2022-12-13T14:49:38;14.43;;;11.40;;
14396;SDS011;50653;47.810;13.022;2022-12-13T14:52:06;19.73;;;13.13;;
14396;SDS011;50653;47.810;13.022;2022-12-13T14:54:46;15.53;;;12.73;;
14396;SDS011;50653;47.810;13.022;2022-12-13T14:57:17;22.37;;;13.90;;
14396;SDS011;50653;47.810;13.022;2022-12-13T14:59:53;16.27;;;13.40;;
14396;SDS011;50653;47.810;13.022;2022-12-13T15:02:22;18.97;;;16.40;;
14396;SDS011;50653;47.810;13.022;2022-12-13T15:04:53;24.90;;;14.60;;
14396;SDS011;50653;47.810;13.022;2022-12-13T15:07:24;23.40;;;14.97;;
14396;SDS011;50653;47.810;13.022;2022-12-13T15:09:58;63.57;;;36.93;;
14396;SDS011;50653;47.810;13.022;2022-12-13T15:12:27;18.23;;;13.33;;
14396;SDS011;50653;47.810;13.022;2022-12-13T15:14:58;19.80;;;14.00;;
14396;SDS011;50653;47.810;13.022;2022-12-13T15:17:33;28.50;;;17.13;;
14396;SDS011;50653;47.810;13.022;2022-12-13T15:20:28;20.83;;;16.83;;
14396;SDS011;50653;47.810;13.022;2022-12-13T15:23:04;17.47;;;14.17;;
14396;SDS011;50653;47.810;13.022;2022-12-13T15:26:06;18.03;;;14.20;;
14396;SDS011;50653;47.810;13.022;2022-12-13T15:28:38;16.90;;;12.90;;
14396;SDS011;50653;47.810;13.022;2022-12-13T15:31:09;21.30;;;14.70;;
14396;SDS011;50653;47.810;13.022;2022-12-13T15:33:59;20.00;;;14.47;;
14396;SDS011;50653;47.810;13.022;2022-12-13T15:37:00;19.17;;;16.10;;
14396;SDS011;50653;47.810;13.022;2022-12-13T15:39:35;27.10;;;16.77;;
14396;SDS011;50653;47.810;13.022;2022-12-13T15:42:17;26.50;;;16.67;;
14396;SDS011;50653;47.810;13.022;2022-12-13T15:44:52;29.20;;;22.10;;
14396;SDS011;50653;47.810;13.022;2022-12-13T15:52:59;52.00;;;29.57;;
14396;SDS011;50653;47.810;13.022;2022-12-13T15:55:41;39.30;;;28.63;;
14396;SDS011;50653;47.810;13.022;2022-12-13T15:58:28;46.30;;;28.10;;
14396;SDS011;50653;47.810;13.022;2022-12-13T16:00:57;40.90;;;23.50;;
14396;SDS011;50653;47.810;13.022;2022-12-13T16:03:29;44.10;;;28.07;;
14396;SDS011;50653;47.810;13.022;2022-12-13T16:06:04;42.20;;;24.03;;
14396;SDS011;50653;47.810;13.022;2022-12-13T16:08:39;40.80;;;24.03;;
14396;SDS011;50653;47.810;13.022;2022-12-13T16:11:05;38.97;;;25.37;;
14396;SDS011;50653;47.810;13.022;2022-12-13T16:13:33;34.63;;;25.93;;
14396;SDS011;50653;47.810;13.022;2022-12-13T16:16:21;32.97;;;20.80;;
14396;SDS011;50653;47.810;13.022;2022-12-13T16:18:52;29.63;;;20.70;;
14396;SDS011;50653;47.810;13.022;2022-12-13T16:21:23;38.43;;;21.50;;
14396;SDS011;50653;47.810;13.022;2022-12-13T16:23:49;29.37;;;20.13;;
14396;SDS011;50653;47.810;13.022;2022-12-13T16:26:26;36.77;;;20.07;;
14396;SDS011;50653;47.810;13.022;2022-12-13T16:29:01;53.03;;;24.73;;
14396;SDS011;50653;47.810;13.022;2022-12-13T16:31:32;37.70;;;23.13;;
14396;SDS011;50653;47.810;13.022;2022-12-13T16:34:05;28.73;;;23.40;;
14396;SDS011;50653;47.810;13.022;2022-12-13T16:43:01;39.57;;;27.50;;
14396;SDS011;50653;47.810;13.022;2022-12-13T16:45:38;40.03;;;26.80;;
14396;SDS011;50653;47.810;13.022;2022-12-13T16:48:08;38.77;;;23.47;;
14396;SDS011;50653;47.810;13.022;2022-12-13T16:50:40;32.17;;;21.77;;
14396;SDS011;50653;47.810;13.022;2022-12-13T16:53:07;28.83;;;20.60;;